createdAt,value
2022-12-31T00:01:04.317Z,21.2
2022-12-31T00:03:04.472Z,21.2
2022-12-31T00:05:04.262Z,21.1
2022-12-31T00:07:04.228Z,21.2
2022-12-31T00:09:34.275Z,21.5
2022-12-31T00:11:34.298Z,21.5
2022-12-31T00:13:34.330Z,21.1
2022-12-31T00:15:34.343Z,21.2
2022-12-31T00:17:34.316Z,21.3
2022-12-31T00:19:34.247Z,21.3
2022-12-31T00:21:34.251Z,21.0
2022-12-31T00:23:34.262Z,20.9
2022-12-31T00:25:34.296Z,20.5
2022-12-31T00:27:34.290Z,20.4
2022-12-31T00:29:34.334Z,20.5
2022-12-31T00:31:34.409Z,20.5
2022-12-31T00:33:34.382Z,20.5
2022-12-31T00:35:34.276Z,20.6
2022-12-31T00:37:34.282Z,20.7
2022-12-31T00:39:34.313Z,20.5
2022-12-31T00:41:34.342Z,20.0
2022-12-31T00:43:34.328Z,20.2
2022-12-31T00:45:34.403Z,20.0
2022-12-31T00:47:34.355Z,19.9
2022-12-31T00:49:34.344Z,19.7
2022-12-31T00:51:34.318Z,19.9
2022-12-31T00:53:34.292Z,19.9
2022-12-31T00:55:34.344Z,19.9
2022-12-31T00:57:34.354Z,19.5
2022-12-31T00:59:34.308Z,19.7
2022-12-31T01:01:34.378Z,19.8
2022-12-31T01:03:34.307Z,19.8
2022-12-31T01:05:34.395Z,19.8
2022-12-31T01:07:34.249Z,19.5
2022-12-31T01:09:34.286Z,19.7
2022-12-31T01:11:34.315Z,19.8
2022-12-31T01:13:34.275Z,20.0
2022-12-31T01:15:34.299Z,20.1
2022-12-31T01:17:34.361Z,20.2
2022-12-31T01:19:34.303Z,20.1
2022-12-31T01:21:34.262Z,20.3
2022-12-31T01:23:34.259Z,20.2
2022-12-31T01:25:34.291Z,20.1
2022-12-31T01:27:34.277Z,20.2
2022-12-31T01:29:34.269Z,20.1
2022-12-31T01:31:34.398Z,20.0
2022-12-31T01:33:34.264Z,20.1
2022-12-31T01:35:34.253Z,20.1
2022-12-31T01:37:34.277Z,20.2
2022-12-31T01:39:34.278Z,20.1
2022-12-31T01:41:34.278Z,20.5
2022-12-31T01:43:34.307Z,20.7
2022-12-31T01:45:34.289Z,20.7
2022-12-31T01:47:34.334Z,20.8
2022-12-31T01:49:34.398Z,20.7
2022-12-31T01:51:34.279Z,20.5
2022-12-31T01:53:34.314Z,20.5
2022-12-31T01:55:34.315Z,20.6
2022-12-31T01:57:34.304Z,20.9
2022-12-31T01:59:34.315Z,20.6
2022-12-31T02:01:34.340Z,20.6
2022-12-31T02:03:34.299Z,20.5
2022-12-31T02:06:04.441Z,20.7
2022-12-31T02:08:04.337Z,21.1
2022-12-31T02:10:04.306Z,20.7
2022-12-31T02:12:04.326Z,20.9
2022-12-31T02:14:04.284Z,20.8
2022-12-31T02:16:04.450Z,21.0
2022-12-31T02:18:04.345Z,20.8
2022-12-31T02:20:04.352Z,20.6
2022-12-31T02:22:04.358Z,20.4
2022-12-31T02:24:04.287Z,20.5
2022-12-31T02:26:04.347Z,20.9
2022-12-31T02:28:04.411Z,20.7
2022-12-31T02:30:04.319Z,21.0
2022-12-31T02:32:04.350Z,21.0
2022-12-31T02:34:04.338Z,20.9
2022-12-31T02:36:04.301Z,20.8
2022-12-31T02:38:04.310Z,20.7
2022-12-31T02:40:04.339Z,20.7
2022-12-31T02:42:04.305Z,20.5
2022-12-31T02:44:04.313Z,20.4
2022-12-31T02:46:04.505Z,20.8
2022-12-31T02:48:04.314Z,20.8
2022-12-31T02:50:04.462Z,20.8
2022-12-31T02:52:04.331Z,21.0
2022-12-31T02:54:04.303Z,20.9
2022-12-31T02:56:04.360Z,20.7
2022-12-31T02:58:04.308Z,20.8
2022-12-31T03:00:04.355Z,20.9
2022-12-31T03:02:04.376Z,20.7
2022-12-31T03:04:04.355Z,20.7
2022-12-31T03:06:04.487Z,20.3
2022-12-31T03:08:04.337Z,20.1
2022-12-31T03:10:04.477Z,20.6
2022-12-31T03:12:04.326Z,20.6
2022-12-31T03:14:04.382Z,20.5
2022-12-31T03:16:04.390Z,20.4
2022-12-31T03:18:04.329Z,20.6
2022-12-31T03:20:04.366Z,20.6
2022-12-31T03:22:04.340Z,20.9
2022-12-31T03:24:04.448Z,21.0
2022-12-31T03:26:04.376Z,20.9
2022-12-31T03:28:04.414Z,21.1
2022-12-31T03:30:04.412Z,20.9
2022-12-31T03:32:04.400Z,20.7
2022-12-31T03:34:04.349Z,20.5
2022-12-31T03:36:04.371Z,20.6
2022-12-31T03:38:04.390Z,20.5
2022-12-31T03:40:04.430Z,20.6
2022-12-31T03:42:04.376Z,20.9
2022-12-31T03:44:04.352Z,21.0
2022-12-31T03:46:04.469Z,21.1
2022-12-31T03:48:04.372Z,21.3
2022-12-31T03:50:04.408Z,21.4
2022-12-31T03:52:04.401Z,21.3
2022-12-31T03:54:04.362Z,21.3
2022-12-31T03:56:04.352Z,21.3
2022-12-31T03:58:04.475Z,21.2
2022-12-31T04:00:04.376Z,20.9
2022-12-31T04:02:34.634Z,21.0
2022-12-31T04:04:34.408Z,21.2
2022-12-31T04:06:34.385Z,21.1
2022-12-31T04:08:34.409Z,21.1
2022-12-31T04:10:34.406Z,20.6
2022-12-31T04:12:34.418Z,20.3
2022-12-31T04:14:34.429Z,20.5
2022-12-31T04:16:34.462Z,20.4
2022-12-31T04:18:34.372Z,20.0
2022-12-31T04:20:34.420Z,20.0
2022-12-31T04:22:34.381Z,19.9
2022-12-31T04:24:34.521Z,19.9
2022-12-31T04:26:34.381Z,19.5
2022-12-31T04:28:34.401Z,19.4
2022-12-31T04:30:34.471Z,19.8
2022-12-31T04:32:34.367Z,19.8
2022-12-31T04:34:34.414Z,19.8
2022-12-31T04:36:34.470Z,20.0
2022-12-31T04:38:34.461Z,20.2
2022-12-31T04:40:34.410Z,19.9
2022-12-31T04:42:34.413Z,19.9
2022-12-31T04:44:34.447Z,19.8
2022-12-31T04:46:34.410Z,19.8
2022-12-31T04:48:34.424Z,19.6
2022-12-31T04:50:34.375Z,19.6
2022-12-31T04:52:38.732Z,19.6
2022-12-31T04:54:34.435Z,19.6
2022-12-31T04:56:34.399Z,19.6
2022-12-31T04:58:34.442Z,19.8
2022-12-31T05:00:34.394Z,20.0
2022-12-31T05:02:34.595Z,20.0
2022-12-31T05:04:34.419Z,20.2
2022-12-31T05:06:34.412Z,20.1
2022-12-31T05:08:34.511Z,20.4
2022-12-31T05:10:34.499Z,20.5
2022-12-31T05:12:34.416Z,20.8
2022-12-31T05:14:34.456Z,20.5
2022-12-31T05:16:34.500Z,20.7
2022-12-31T05:18:34.501Z,20.8
2022-12-31T05:20:34.572Z,20.7
2022-12-31T05:22:34.463Z,20.9
2022-12-31T05:24:34.582Z,20.7
2022-12-31T05:26:34.469Z,20.9
2022-12-31T05:28:34.730Z,20.8
2022-12-31T05:30:34.642Z,20.8
2022-12-31T05:32:34.533Z,20.9
2022-12-31T05:34:34.533Z,21.3
2022-12-31T05:36:34.503Z,21.2
2022-12-31T05:38:34.516Z,21.3
2022-12-31T05:42:34.521Z,21.2
2022-12-31T05:44:34.473Z,21.5
2022-12-31T05:48:58.870Z,21.2
2022-12-31T05:50:58.851Z,21.4
2022-12-31T05:52:58.847Z,21.2
2022-12-31T05:54:58.898Z,21.3
2022-12-31T05:56:58.847Z,21.1
2022-12-31T05:58:58.849Z,21.0
2022-12-31T06:00:58.914Z,20.9
2022-12-31T06:02:58.934Z,20.5
2022-12-31T06:04:58.860Z,20.4
2022-12-31T06:06:58.919Z,20.5
2022-12-31T06:08:58.865Z,20.4
2022-12-31T06:10:58.883Z,20.5
2022-12-31T06:12:58.995Z,20.5
2022-12-31T06:14:58.866Z,20.4
2022-12-31T06:16:58.878Z,20.8
2022-12-31T06:18:58.874Z,20.8
2022-12-31T06:20:58.875Z,20.9
2022-12-31T06:22:58.853Z,20.6
2022-12-31T06:24:58.890Z,20.6
2022-12-31T06:26:58.853Z,20.5
2022-12-31T06:28:58.892Z,20.6
2022-12-31T06:30:58.944Z,20.4
2022-12-31T06:32:58.861Z,20.4
2022-12-31T06:34:58.917Z,19.9
2022-12-31T06:36:58.887Z,19.8
2022-12-31T06:38:59.116Z,19.9
2022-12-31T06:40:58.971Z,19.9
2022-12-31T06:43:00.397Z,19.5
2022-12-31T06:44:58.864Z,19.2
2022-12-31T06:46:58.892Z,19.3
2022-12-31T06:48:58.869Z,19.3
2022-12-31T06:50:58.892Z,19.1
2022-12-31T06:52:58.865Z,18.9
2022-12-31T06:54:58.851Z,19.0
2022-12-31T06:56:58.935Z,18.9
2022-12-31T06:58:59.038Z,18.8
2022-12-31T07:00:59.010Z,18.8
2022-12-31T07:02:58.913Z,19.0
2022-12-31T07:04:58.878Z,18.8
2022-12-31T07:06:58.872Z,18.8
2022-12-31T07:08:58.902Z,18.8
2022-12-31T07:10:58.872Z,18.7
2022-12-31T07:12:58.931Z,18.5
2022-12-31T07:14:59.009Z,18.6
2022-12-31T07:16:58.927Z,18.4
2022-12-31T07:18:58.895Z,18.4
2022-12-31T07:20:58.937Z,18.6
2022-12-31T07:22:58.967Z,18.6
2022-12-31T07:24:58.893Z,18.5
2022-12-31T07:26:58.894Z,18.3
2022-12-31T07:28:58.992Z,18.3
2022-12-31T07:30:58.979Z,18.5
2022-12-31T07:33:28.913Z,18.3
2022-12-31T07:35:34.725Z,18.4
2022-12-31T07:37:28.957Z,18.5
2022-12-31T07:39:28.927Z,18.4
2022-12-31T07:41:29.001Z,18.9
2022-12-31T07:43:28.949Z,18.9
2022-12-31T07:45:28.930Z,18.6
2022-12-31T07:47:28.930Z,18.6
2022-12-31T07:49:28.904Z,18.9
2022-12-31T07:51:28.892Z,19.2
2022-12-31T07:53:28.989Z,19.2
2022-12-31T07:55:28.958Z,19.2
2022-12-31T07:57:28.923Z,19.4
2022-12-31T07:59:29.077Z,19.5
2022-12-31T08:01:29.203Z,19.9
2022-12-31T08:03:28.949Z,20.2
2022-12-31T08:05:29.008Z,20.1
2022-12-31T08:07:28.988Z,19.8
2022-12-31T08:09:29.139Z,20.0
2022-12-31T08:11:29.048Z,19.8
2022-12-31T08:13:28.919Z,19.8
2022-12-31T08:15:30.516Z,19.6
2022-12-31T08:17:28.938Z,19.8
2022-12-31T08:19:28.978Z,19.6
2022-12-31T08:21:34.648Z,19.8
2022-12-31T08:23:29.124Z,19.8
2022-12-31T08:25:28.977Z,20.0
2022-12-31T08:27:28.984Z,19.9
2022-12-31T08:29:28.957Z,19.9
2022-12-31T08:31:29.017Z,19.9
2022-12-31T08:33:29.084Z,20.0
2022-12-31T08:35:29.101Z,19.9
2022-12-31T08:37:29.051Z,20.0
2022-12-31T08:39:28.996Z,20.0
2022-12-31T08:41:28.980Z,20.1
2022-12-31T08:43:29.030Z,20.1
2022-12-31T08:45:29.008Z,20.2
2022-12-31T08:47:31.048Z,20.4
2022-12-31T08:49:28.986Z,20.2
2022-12-31T08:51:28.988Z,20.2
2022-12-31T08:53:28.958Z,20.4
2022-12-31T08:55:28.959Z,20.4
2022-12-31T08:57:29.073Z,20.2
2022-12-31T08:59:29.005Z,20.1
2022-12-31T09:01:29.087Z,19.9
2022-12-31T09:03:29.102Z,19.8
2022-12-31T09:05:28.961Z,19.9
2022-12-31T09:07:28.975Z,19.8
2022-12-31T09:09:28.953Z,19.3
2022-12-31T09:11:29.085Z,19.7
2022-12-31T09:13:29.252Z,19.8
2022-12-31T09:15:29.215Z,19.8
2022-12-31T09:17:29.256Z,19.7
2022-12-31T09:19:29.120Z,19.7
2022-12-31T09:21:29.487Z,19.4
2022-12-31T09:23:29.321Z,19.3
2022-12-31T09:25:29.007Z,19.2
2022-12-31T09:27:28.996Z,19.2
2022-12-31T09:29:59.121Z,19.5
2022-12-31T09:31:59.186Z,19.5
2022-12-31T09:33:59.037Z,19.5
2022-12-31T09:35:58.981Z,19.5
2022-12-31T09:37:59.040Z,19.5
2022-12-31T09:39:59.007Z,19.5
2022-12-31T09:41:59.065Z,19.1
2022-12-31T09:44:01.177Z,19.1
2022-12-31T09:45:59.119Z,19.3
2022-12-31T09:47:59.053Z,19.3
2022-12-31T09:49:59.215Z,19.3
2022-12-31T09:51:59.181Z,19.1
2022-12-31T09:53:59.170Z,19.0
2022-12-31T09:55:59.071Z,19.1
2022-12-31T09:57:59.066Z,19.1
2022-12-31T09:59:59.105Z,18.9
2022-12-31T10:01:59.382Z,18.9
2022-12-31T10:03:59.135Z,19.0
2022-12-31T10:05:59.038Z,19.1
2022-12-31T10:07:59.192Z,19.4
2022-12-31T10:09:59.025Z,19.7
2022-12-31T10:11:59.054Z,19.5
2022-12-31T10:13:59.123Z,19.5
2022-12-31T10:15:59.149Z,19.5
2022-12-31T10:17:59.115Z,19.5
2022-12-31T10:19:59.132Z,19.8
2022-12-31T10:21:59.050Z,19.9
2022-12-31T10:23:59.059Z,20.2
2022-12-31T10:25:59.214Z,20.1
2022-12-31T10:27:59.208Z,20.2
2022-12-31T10:29:59.160Z,20.1
2022-12-31T10:31:59.115Z,20.3
2022-12-31T10:33:59.107Z,20.3
2022-12-31T10:35:59.147Z,20.2
2022-12-31T10:37:59.205Z,20.2
2022-12-31T10:39:59.103Z,20.1
2022-12-31T10:41:59.133Z,20.0
2022-12-31T10:43:59.078Z,20.0
2022-12-31T10:45:59.124Z,19.7
2022-12-31T10:47:59.364Z,19.8
2022-12-31T10:49:59.135Z,19.7
2022-12-31T10:51:59.073Z,19.8
2022-12-31T10:53:59.199Z,19.9
2022-12-31T10:55:59.108Z,19.9
2022-12-31T10:58:04.075Z,19.9
2022-12-31T10:59:59.092Z,20.0
2022-12-31T11:01:59.362Z,19.8
2022-12-31T11:03:59.202Z,19.6
2022-12-31T11:05:59.475Z,19.7
2022-12-31T11:07:59.173Z,19.6
2022-12-31T11:09:59.227Z,19.6
2022-12-31T11:11:59.275Z,19.6
2022-12-31T11:13:59.352Z,19.6
2022-12-31T11:15:59.390Z,19.6
2022-12-31T11:17:59.353Z,19.4
2022-12-31T11:19:59.328Z,19.1
2022-12-31T11:21:59.418Z,19.0
2022-12-31T11:23:59.419Z,18.7
2022-12-31T11:25:59.376Z,18.7
2022-12-31T11:28:29.323Z,18.5
2022-12-31T11:30:29.355Z,18.3
2022-12-31T11:32:29.307Z,18.3
2022-12-31T11:34:29.228Z,18.5
2022-12-31T11:36:29.342Z,18.5
2022-12-31T11:38:29.299Z,18.5
2022-12-31T11:40:31.311Z,18.6
2022-12-31T11:42:29.363Z,18.5
2022-12-31T11:44:29.251Z,18.6
2022-12-31T11:46:29.874Z,18.8
2022-12-31T11:48:30.976Z,19.0
2022-12-31T11:50:29.263Z,19.2
2022-12-31T11:52:29.323Z,19.3
2022-12-31T11:54:29.314Z,19.0
2022-12-31T11:56:29.309Z,19.2
2022-12-31T11:58:29.397Z,19.2
2022-12-31T12:00:29.324Z,19.4
2022-12-31T12:02:29.397Z,19.6
2022-12-31T12:04:29.483Z,19.7
2022-12-31T12:06:29.189Z,19.7
2022-12-31T12:08:29.218Z,19.5
2022-12-31T12:10:35.659Z,19.5
2022-12-31T12:12:29.133Z,19.3
2022-12-31T12:14:29.273Z,19.3
2022-12-31T12:16:29.242Z,19.2
2022-12-31T12:18:29.270Z,19.6
2022-12-31T12:20:29.195Z,19.4
2022-12-31T12:22:29.226Z,19.5
2022-12-31T12:24:29.324Z,19.6
2022-12-31T12:26:29.265Z,19.8
2022-12-31T12:28:29.200Z,20.2
2022-12-31T12:30:29.209Z,20.1
2022-12-31T12:32:29.164Z,20.2
2022-12-31T12:34:29.277Z,20.2
2022-12-31T12:36:29.234Z,20.2
2022-12-31T12:38:29.245Z,20.2
2022-12-31T12:40:33.628Z,20.1
2022-12-31T12:42:29.252Z,20.3
2022-12-31T12:44:29.198Z,20.0
2022-12-31T12:46:29.245Z,19.8
2022-12-31T12:48:29.238Z,19.5
2022-12-31T12:50:29.256Z,19.2
2022-12-31T12:52:29.265Z,19.0
2022-12-31T12:56:30.328Z,19.0
2022-12-31T12:58:41.199Z,19.2
2022-12-31T13:00:41.198Z,19.1
2022-12-31T13:02:41.236Z,18.9
2022-12-31T13:04:41.118Z,18.8
2022-12-31T13:06:41.209Z,18.8
2022-12-31T13:08:41.188Z,19.0
2022-12-31T13:10:41.189Z,18.9
2022-12-31T13:13:13.797Z,19.1
2022-12-31T13:14:41.169Z,19.5
2022-12-31T13:16:41.245Z,19.4
2022-12-31T13:18:41.249Z,19.0
2022-12-31T13:20:41.252Z,19.1
2022-12-31T13:22:41.080Z,19.1
2022-12-31T13:24:41.129Z,19.3
2022-12-31T13:26:41.156Z,19.1
2022-12-31T13:28:41.205Z,18.9
2022-12-31T13:30:41.210Z,18.9
2022-12-31T13:32:41.201Z,18.6
2022-12-31T13:34:41.225Z,18.4
2022-12-31T13:36:41.268Z,18.4
2022-12-31T13:38:41.145Z,18.4
2022-12-31T13:40:41.148Z,18.1
2022-12-31T13:42:41.176Z,18.2
2022-12-31T13:44:41.155Z,18.4
2022-12-31T13:46:41.304Z,18.3
2022-12-31T13:48:41.416Z,18.5
2022-12-31T13:50:41.357Z,18.7
2022-12-31T13:52:41.447Z,19.0
2022-12-31T13:54:41.304Z,18.6
2022-12-31T13:56:41.258Z,18.8
2022-12-31T13:58:41.384Z,18.8
2022-12-31T14:00:41.348Z,18.8
2022-12-31T14:02:41.439Z,18.9
2022-12-31T14:04:41.273Z,18.9
2022-12-31T14:06:41.593Z,18.9
2022-12-31T14:08:41.367Z,19.0
2022-12-31T14:10:41.369Z,19.2
2022-12-31T14:13:11.425Z,19.2
2022-12-31T14:15:11.324Z,18.9
2022-12-31T14:17:11.556Z,19.1
2022-12-31T14:19:11.299Z,19.3
2022-12-31T14:21:11.412Z,19.2
2022-12-31T14:23:11.200Z,19.1
2022-12-31T14:25:11.288Z,19.0
2022-12-31T14:27:11.181Z,19.0
2022-12-31T14:29:12.208Z,19.1
2022-12-31T14:31:11.213Z,19.1
2022-12-31T14:33:11.253Z,19.3
2022-12-31T14:35:11.164Z,19.3
2022-12-31T14:37:11.272Z,19.5
2022-12-31T14:39:11.300Z,19.4
2022-12-31T14:41:11.181Z,19.6
2022-12-31T14:43:11.221Z,19.5
2022-12-31T14:45:11.235Z,19.5
2022-12-31T14:47:11.244Z,19.7
2022-12-31T14:49:11.286Z,19.9
2022-12-31T14:51:11.300Z,19.9
2022-12-31T14:53:11.367Z,19.7
2022-12-31T14:55:11.282Z,19.9
2022-12-31T14:57:11.165Z,19.9
2022-12-31T14:59:11.221Z,20.1
2022-12-31T15:01:11.301Z,20.0
2022-12-31T15:03:11.292Z,20.1
2022-12-31T15:05:11.301Z,20.1
2022-12-31T15:07:11.244Z,20.1
2022-12-31T15:09:13.309Z,20.0
2022-12-31T15:11:11.197Z,19.8
2022-12-31T15:13:11.227Z,19.6
2022-12-31T15:15:11.288Z,19.5
2022-12-31T15:17:11.266Z,19.3
2022-12-31T15:19:11.261Z,19.5
2022-12-31T15:21:11.300Z,19.6
2022-12-31T15:23:11.279Z,19.8
2022-12-31T15:25:11.206Z,19.8
2022-12-31T15:27:11.177Z,19.9
2022-12-31T15:29:11.237Z,19.9
2022-12-31T15:31:17.476Z,19.9
2022-12-31T15:33:11.252Z,19.7
2022-12-31T15:35:11.301Z,19.8
2022-12-31T15:39:11.365Z,19.6
2022-12-31T15:41:11.352Z,19.7
2022-12-31T15:43:11.239Z,19.8
2022-12-31T15:45:11.257Z,19.6
2022-12-31T15:47:11.327Z,19.5
2022-12-31T15:49:15.576Z,19.5
2022-12-31T15:51:11.307Z,19.7
2022-12-31T15:53:11.307Z,19.7
2022-12-31T15:55:11.253Z,19.7
2022-12-31T15:57:11.183Z,19.6
2022-12-31T15:59:11.219Z,19.2
2022-12-31T16:01:11.389Z,19.2
2022-12-31T16:03:11.283Z,19.0
2022-12-31T16:05:11.305Z,18.9
2022-12-31T16:07:11.323Z,19.1
2022-12-31T16:09:41.292Z,19.0
2022-12-31T16:11:41.257Z,19.2
2022-12-31T16:13:41.252Z,19.3
2022-12-31T16:15:41.327Z,19.5
2022-12-31T16:17:41.291Z,19.5
2022-12-31T16:19:41.296Z,19.4
2022-12-31T16:21:41.342Z,19.4
2022-12-31T16:23:42.609Z,19.4
2022-12-31T16:25:41.402Z,19.5
2022-12-31T16:27:41.340Z,19.6
2022-12-31T16:29:41.255Z,19.5
2022-12-31T16:31:41.347Z,19.3
2022-12-31T16:33:41.293Z,19.3
2022-12-31T16:35:41.367Z,19.4
2022-12-31T16:37:41.356Z,19.4
2022-12-31T16:39:41.439Z,19.5
2022-12-31T16:41:41.268Z,19.3
2022-12-31T16:43:41.285Z,19.3
2022-12-31T16:45:41.269Z,19.4
2022-12-31T16:47:41.286Z,18.8
2022-12-31T16:49:41.318Z,18.9
2022-12-31T16:51:41.329Z,18.8
2022-12-31T16:53:41.308Z,18.9
2022-12-31T16:55:41.363Z,18.6
2022-12-31T16:57:41.251Z,18.4
2022-12-31T16:59:41.245Z,18.7
2022-12-31T17:01:41.368Z,18.6
2022-12-31T17:06:02.711Z,18.5
2022-12-31T17:08:02.776Z,18.3
2022-12-31T17:10:02.824Z,18.1
2022-12-31T17:12:02.817Z,18.1
2022-12-31T17:14:02.791Z,18.2
2022-12-31T17:16:02.818Z,18.1
2022-12-31T17:18:02.753Z,18.2
2022-12-31T17:20:02.761Z,18.2
2022-12-31T17:22:02.731Z,18.4
2022-12-31T17:24:02.755Z,18.0
2022-12-31T17:26:32.835Z,17.6
2022-12-31T17:28:32.739Z,17.6
2022-12-31T17:30:32.770Z,17.7
2022-12-31T17:32:32.750Z,18.0
2022-12-31T17:34:32.766Z,18.0
2022-12-31T17:36:32.814Z,18.2
2022-12-31T17:38:32.827Z,18.2
2022-12-31T17:40:50.374Z,18.3
2022-12-31T17:42:32.851Z,18.7
2022-12-31T17:44:32.902Z,19.0
2022-12-31T17:46:32.792Z,19.0
2022-12-31T17:48:32.736Z,19.1
2022-12-31T17:50:32.721Z,18.8
2022-12-31T17:52:32.756Z,18.8
2022-12-31T17:54:32.879Z,18.9
2022-12-31T17:56:32.681Z,19.1
2022-12-31T17:58:32.917Z,19.3
2022-12-31T18:00:32.769Z,19.5
2022-12-31T18:02:32.797Z,19.7
2022-12-31T18:04:32.735Z,19.8
2022-12-31T18:06:32.775Z,19.8
2022-12-31T18:08:32.832Z,20.0
2022-12-31T18:10:32.953Z,20.0
2022-12-31T18:12:32.857Z,19.9
2022-12-31T18:14:32.881Z,19.9
2022-12-31T18:16:32.825Z,19.9
2022-12-31T18:18:32.717Z,20.0
2022-12-31T18:20:32.838Z,20.0
2022-12-31T18:22:32.781Z,20.1
2022-12-31T18:24:33.789Z,20.3
2022-12-31T18:26:32.755Z,20.4
2022-12-31T18:28:32.853Z,20.3
2022-12-31T18:30:32.806Z,20.5
2022-12-31T18:32:32.759Z,20.2
2022-12-31T18:34:32.817Z,20.0
2022-12-31T18:36:32.888Z,19.9
2022-12-31T18:38:32.840Z,19.8
2022-12-31T18:40:32.831Z,19.8
2022-12-31T18:42:32.757Z,19.4
2022-12-31T18:44:32.758Z,19.3
2022-12-31T18:46:32.821Z,19.5
2022-12-31T18:48:32.731Z,19.5
2022-12-31T18:50:32.927Z,19.6
2022-12-31T18:52:32.861Z,19.5
2022-12-31T18:54:32.819Z,19.5
2022-12-31T18:56:33.878Z,19.6
2022-12-31T18:58:32.749Z,19.5
2022-12-31T19:00:32.953Z,19.1
2022-12-31T19:02:32.896Z,18.9
2022-12-31T19:04:32.948Z,19.0
2022-12-31T19:06:32.739Z,18.8
2022-12-31T19:08:32.835Z,18.8
2022-12-31T19:10:32.770Z,18.6
2022-12-31T19:12:32.898Z,18.7
2022-12-31T19:14:32.809Z,18.8
2022-12-31T19:16:32.871Z,18.8
2022-12-31T19:18:32.794Z,19.0
2022-12-31T19:21:02.952Z,19.0
2022-12-31T19:23:02.877Z,18.8
2022-12-31T19:25:02.926Z,19.0
2022-12-31T19:27:02.925Z,19.1
2022-12-31T19:29:02.838Z,19.2
2022-12-31T19:31:02.967Z,19.1
2022-12-31T19:33:02.857Z,19.4
2022-12-31T19:35:02.858Z,19.4
2022-12-31T19:37:02.824Z,19.3
2022-12-31T19:39:02.859Z,19.5
2022-12-31T19:41:02.772Z,19.5
2022-12-31T19:43:02.893Z,19.4
2022-12-31T19:45:02.813Z,19.3
2022-12-31T19:47:02.744Z,19.1
2022-12-31T19:49:02.820Z,19.1
2022-12-31T19:51:03.859Z,19.1
2022-12-31T19:53:02.820Z,19.4
2022-12-31T19:55:02.809Z,19.3
2022-12-31T19:57:02.820Z,19.4
2022-12-31T19:59:02.816Z,19.4
2022-12-31T20:01:03.425Z,19.8
2022-12-31T20:03:03.068Z,19.9
2022-12-31T20:05:02.880Z,19.6
2022-12-31T20:07:02.890Z,20.2
2022-12-31T20:09:02.792Z,20.1
2022-12-31T20:11:02.914Z,20.5
2022-12-31T20:13:02.869Z,20.1
2022-12-31T20:15:02.819Z,20.1
2022-12-31T20:17:02.852Z,20.0
2022-12-31T20:19:03.885Z,20.0
2022-12-31T20:21:02.868Z,19.8
2022-12-31T20:23:02.816Z,19.9
2022-12-31T20:25:02.814Z,19.8
2022-12-31T20:27:02.835Z,20.0
2022-12-31T20:29:02.815Z,20.0
2022-12-31T20:31:02.938Z,20.0
2022-12-31T20:33:02.882Z,19.9
2022-12-31T20:35:04.847Z,19.8
2022-12-31T20:37:03.842Z,19.8
2022-12-31T20:39:02.918Z,19.8
2022-12-31T20:41:02.835Z,20.0
2022-12-31T20:43:02.848Z,20.0
2022-12-31T20:45:02.854Z,20.0
2022-12-31T20:47:02.906Z,20.2
2022-12-31T20:49:02.880Z,20.3
2022-12-31T20:51:02.958Z,20.2
2022-12-31T20:53:02.958Z,20.3
2022-12-31T20:55:02.853Z,20.2
2022-12-31T20:57:02.891Z,20.0
2022-12-31T20:59:02.845Z,20.1
2022-12-31T21:01:03.099Z,19.5
2022-12-31T21:03:14.218Z,19.6
2022-12-31T21:05:03.091Z,19.7
2022-12-31T21:07:03.017Z,19.4
2022-12-31T21:09:02.961Z,19.3
2022-12-31T21:11:02.905Z,19.1
2022-12-31T21:13:02.866Z,19.4
2022-12-31T21:15:32.959Z,19.5
2022-12-31T21:17:33.925Z,19.3
2022-12-31T21:19:34.029Z,19.2
2022-12-31T21:21:32.855Z,19.5
2022-12-31T21:23:32.929Z,19.5
2022-12-31T21:25:32.906Z,19.1
2022-12-31T21:27:32.872Z,19.1
2022-12-31T21:29:34.747Z,19.1
2022-12-31T21:31:32.975Z,19.5
2022-12-31T21:33:32.924Z,19.8
2022-12-31T21:35:48.356Z,19.7
2022-12-31T21:37:58.032Z,19.9
2022-12-31T21:39:32.897Z,19.7
2022-12-31T21:41:34.158Z,19.6
2022-12-31T21:43:32.892Z,19.9
2022-12-31T21:45:32.893Z,20.2
2022-12-31T21:47:36.535Z,20.1
2022-12-31T21:49:32.862Z,20.4
2022-12-31T21:51:32.853Z,20.6
2022-12-31T21:53:37.002Z,20.4
2022-12-31T21:55:32.852Z,20.8
2022-12-31T21:57:51.983Z,20.8
2022-12-31T21:59:32.917Z,21.0
2022-12-31T22:01:33.131Z,21.1
2022-12-31T22:03:33.015Z,21.0
2022-12-31T22:05:32.868Z,20.9
2022-12-31T22:07:32.964Z,20.6
2022-12-31T22:09:32.901Z,21.1
2022-12-31T22:11:32.893Z,21.0
2022-12-31T22:13:32.887Z,21.0
2022-12-31T22:15:32.972Z,21.1
2022-12-31T22:17:32.990Z,21.4
2022-12-31T22:19:39.317Z,21.1
2022-12-31T22:21:33.028Z,21.1
2022-12-31T22:23:32.934Z,21.0
2022-12-31T22:25:32.886Z,21.0
2022-12-31T22:27:32.927Z,20.9
2022-12-31T22:29:32.893Z,20.7
2022-12-31T22:31:32.946Z,20.5
2022-12-31T22:33:32.907Z,20.3
2022-12-31T22:35:32.876Z,20.3
2022-12-31T22:37:56.396Z,20.2
2022-12-31T22:39:44.119Z,20.3
2022-12-31T22:43:32.995Z,20.1
2022-12-31T22:45:32.909Z,19.7
2022-12-31T22:47:33.058Z,19.7
2022-12-31T22:49:32.922Z,19.4
2022-12-31T22:51:57.112Z,19.2
2022-12-31T22:53:32.920Z,19.1
2022-12-31T22:55:32.923Z,18.9
2022-12-31T22:57:32.912Z,19.1
2022-12-31T22:59:32.924Z,19.2
2022-12-31T23:01:32.951Z,19.0
2022-12-31T23:03:33.056Z,19.1
2022-12-31T23:05:32.940Z,19.2
2022-12-31T23:07:32.904Z,19.5
2022-12-31T23:09:32.998Z,19.0
2022-12-31T23:11:32.859Z,19.3
2022-12-31T23:14:03.111Z,19.5
2022-12-31T23:16:02.935Z,19.4
2022-12-31T23:18:02.913Z,19.2
2022-12-31T23:20:02.927Z,19.4
2022-12-31T23:22:02.918Z,19.1
2022-12-31T23:24:02.941Z,19.3
2022-12-31T23:26:03.002Z,19.5
2022-12-31T23:28:02.938Z,19.6
2022-12-31T23:30:03.030Z,19.7
2022-12-31T23:32:02.891Z,19.5
2022-12-31T23:34:03.057Z,19.5
2022-12-31T23:36:02.930Z,19.8
2022-12-31T23:38:02.985Z,19.4
2022-12-31T23:40:02.920Z,19.0
2022-12-31T23:42:02.969Z,19.2
2022-12-31T23:44:02.961Z,19.1
2022-12-31T23:46:03.011Z,19.3
2022-12-31T23:48:02.929Z,19.5
2022-12-31T23:50:02.953Z,19.6
2022-12-31T23:52:03.087Z,19.6
2022-12-31T23:54:02.967Z,19.7
2022-12-31T23:56:07.928Z,19.7
2022-12-31T23:58:02.917Z,19.6
